Share

Key West, FL (33040)

7:55 PM EDT on April 24, 2014 (GMT -0400)
Big Coppitt Key Gulfside (KFLKEYWE18) Elev 31 ft | 24.60 °N, 81.67 °W | Change Station

Current weather conditions updated 10 minutes ago

Partly Cloudy
Partly Cloudy
81.5 °F
Feels Like 85 °F
N
3.7
Wind Variable Wind from SE
Sunrise 6:56 AM
Sunset 7:52 PM
Moon Waning Crescent

Tomorrow is forecast to be Cooler than today.

Pressure 29.95 in
Visibility 10.0 miles
Clouds Few 3000 ft
Heat Index 85 °F
Dew Point 70 °F
Humidity 68%
Rainfall 0.00 in
Snow Depth Not available.
UV 1 out of 16
Pollen 5.30 out of 12
Air Quality Not available.
Flu Activity Sporadic
METAR KNQX 242253Z 10007KT 10SM FEW030 26/21 A2995 RMK AO2 SLP142 T02610206 $

More Conditions Fewer Conditions

Pressure 29.95 in
Visibility 10.0 miles
Clouds Few 3000 ft
Heat Index 85 °F
Dew Point 70 °F
Humidity 68%
Rainfall 0.00 in
Snow Depth Not available.
UV 1 out of 16
Pollen 5.30 out of 12
Air Quality Not available.
Flu Activity Sporadic
METAR KNQX 242253Z 10007KT 10SM FEW030 26/21 A2995 RMK AO2 SLP142 T02610206 $

More Conditions Fewer Conditions

10-Day Weather Forecast

Almanac

Astronomy

Apr. 24, 2014 Rise Set
Actual Time 6:56 AM EDT 7:52 PM EDT
Civil Twilight 6:33 AM EDT 8:16 PM EDT
Nautical Twilight 6:05 AM EDT 8:44 PM EDT
Astronomical Twilight 5:36 AM EDT 9:12 PM EDT
Moon 3:34 AM EDT 3:36 PM EDT
Length of Visible Light 13h 43m
Length of Day
12h 56m
Tomorrow will be 1m 17s longer.
Waning Crescent, 21% of the Moon is Illuminated
Today
Waning Crescent
Apr 29
New
May 6
First Quarter
May 14
Full
May 21
Last Quarter

Today's Extremes

State Highs State Lows

Community

  • Jone Runs Falls
    Jone Runs Falls
  • Easter in Shenandoah National Park
    Easter in Shenandoah National Park
  • Sunset at Apalachicola Bay, Florida
    Sunset at Apalachicola Bay, Florida
  • Clouds mov'n in
    Clouds mov'n in
  • Stacked
    Stacked

WunderPhotos

Upload Photos

1,704,746 photos uploaded!

Nearby

Snow Depth

Station Depth Elevation
No new snow has been reported.

Coastal Water Temperatures

Place Temperature
Key West, FL 80.1 °F
Vaca Key, FL 82.9 °F

Earthquake Activity

City Distance Mag. Time & Date
No recent earthquake activity has been reported nearby.
Minimum magnitude displayed is 2.5.

Nearby Weather Stations

Station Location Temp. Heat Index Dew Point Humidity Wind Precip. Elev Updated Type
Big Coppitt Key Gulfside, Key West, FL 81.5 °F 85 °F 70 °F 68% SE  at  3.7 mph - / hr 31 ft 7:44 PM EDT Normal
Cudjoe Key, FL 78.6 °F 81 °F 71 °F 77% SE  at  1.0 mph 0.00 in / hr 16 ft 7:55 PM EDT Rapid Fire
Breezeswept Estates - Bird Lake - Ramrod, Ramrod Key, FL 78.3 °F 81 °F 69 °F 74% East  at  5.5 mph 0.00 in / hr 25 ft 7:55 PM EDT Rapid Fire

Show More Stations Show Fewer Stations

What do you think?

We're not finished. Please let us know what you like, what you don't like, and what you are still missing.